Time;durP1;ratioP1;P1;durP2;ratioP2;P2;SDS_P1;SDS_P2;PMS_P1;PMS_P2;Temp;Humidity;BMP_temperature;BMP_pressure;BME280_temperature;BME280_humidity;BME280_pressure;Samples;Min_cycle;Max_cycle;Signal;HPM_P1;HPM_P2
2021/12/25 00:02:16;;;;;;;11.20;5.30;;;21.60;70.10;;;;;;5073459;28;20436;-63
2021/12/25 00:04:43;;;;;;;11.27;5.57;;;21.60;70.00;;;;;;5073307;28;20791;-63
2021/12/25 00:07:10;;;;;;;6.40;4.70;;;21.60;69.80;;;;;;5073162;28;20488;-63
2021/12/25 00:09:36;;;;;;;6.70;4.70;;;21.60;69.80;;;;;;5073147;28;20464;-63
2021/12/25 00:12:05;;;;;;;9.40;4.77;;;21.70;69.80;;;;;;5073242;28;20445;-63
2021/12/25 00:14:32;;;;;;;7.43;4.33;;;21.70;69.70;;;;;;5073359;28;20791;-64
2021/12/25 00:17:00;;;;;;;4.97;4.50;;;21.70;69.60;;;;;;5073144;28;20444;-64
2021/12/25 00:19:27;;;;;;;4.90;4.13;;;21.70;69.50;;;;;;5073119;28;20465;-63
2021/12/25 00:21:54;;;;;;;4.63;4.00;;;21.70;69.50;;;;;;5073227;28;20444;-64
2021/12/25 00:24:21;;;;;;;6.00;3.90;;;21.70;69.40;;;;;;5077036;28;20436;-64
2021/12/25 00:26:55;;;;;;;4.03;3.63;;;21.70;69.30;;;;;;5077246;28;20488;-64
2021/12/25 00:29:52;;;;;;;4.07;3.67;;;21.70;69.30;;;;;;5077275;28;20481;-64
2021/12/25 00:35:08;;;;;;;4.47;2.90;;;21.70;69.10;;;;;;5066317;28;20420;-63
2021/12/25 00:37:35;;;;;;;7.13;4.03;;;21.60;69.00;;;;;;5077110;28;20445;-64
2021/12/25 00:40:02;;;;;;;3.70;2.90;;;21.70;69.00;;;;;;5078752;28;20800;-63
2021/12/25 00:42:30;;;;;;;5.60;3.90;;;21.70;69.00;;;;;;5076860;28;20428;-64
2021/12/25 00:44:58;;;;;;;4.23;3.60;;;21.70;68.90;;;;;;5076988;28;20539;-63
2021/12/25 00:47:25;;;;;;;3.80;3.50;;;21.70;68.80;;;;;;5076852;28;20492;-64
2021/12/25 00:49:51;;;;;;;2.67;2.47;;;21.70;68.80;;;;;;5076687;28;20777;-63
2021/12/25 00:52:18;;;;;;;3.50;3.20;;;21.70;68.80;;;;;;5076768;28;20452;-64
2021/12/25 00:54:45;;;;;;;3.10;2.70;;;21.70;68.70;;;;;;5076697;28;20436;-64
2021/12/25 00:57:12;;;;;;;3.23;2.93;;;21.60;68.50;;;;;;5076741;28;20444;-64
2021/12/25 00:59:38;;;;;;;5.73;3.30;;;21.70;68.70;;;;;;5076489;28;20447;-63
2021/12/25 01:02:06;;;;;;;4.83;3.20;;;21.70;68.60;;;;;;5076543;28;20441;-63
2021/12/25 01:04:33;;;;;;;3.30;3.00;;;21.70;68.50;;;;;;5076442;28;20934;-64
2021/12/25 01:07:00;;;;;;;4.20;2.50;;;21.70;68.50;;;;;;5076283;28;20845;-63
2021/12/25 01:09:27;;;;;;;5.93;3.23;;;21.70;68.50;;;;;;5076358;28;20452;-63
2021/12/25 01:11:55;;;;;;;2.90;2.70;;;21.70;68.50;;;;;;5076580;28;20927;-63
2021/12/25 01:14:31;;;;;;;3.50;2.90;;;21.70;68.50;;;;;;5076407;28;20927;-63
2021/12/25 01:17:18;;;;;;;2.93;2.57;;;21.70;68.40;;;;;;5076373;28;20452;-63
2021/12/25 01:30:57;;;;;;;3.53;2.50;;;21.60;68.20;;;;;;5037500;28;20518;-64
2021/12/25 01:38:58;;;;;;;2.23;2.03;;;21.60;68.00;;;;;;5053212;28;20443;-64
2021/12/25 01:41:53;;;;;;;2.30;2.10;;;21.60;68.00;;;;;;5075702;28;20563;-64
2021/12/25 01:49:51;;;;;;;2.30;2.10;;;21.60;68.00;;;;;;5075417;28;20483;-64
2021/12/25 01:52:25;;;;;;;4.90;1.70;;;21.60;67.90;;;;;;5075623;28;20459;-64
2021/12/25 01:54:51;;;;;;;2.70;1.73;;;21.60;67.80;;;;;;5075582;28;20444;-64
2021/12/25 01:57:18;;;;;;;2.23;1.90;;;21.60;67.80;;;;;;5075827;28;20441;-64
2021/12/25 01:59:45;;;;;;;2.27;1.80;;;21.60;67.80;;;;;;5075600;28;20824;-64
2021/12/25 02:02:12;;;;;;;1.93;1.83;;;21.60;67.80;;;;;;5075475;28;20788;-63
2021/12/25 02:04:39;;;;;;;2.87;1.80;;;21.60;67.70;;;;;;5075636;28;20433;-64
2021/12/25 02:07:05;;;;;;;2.10;1.90;;;21.60;67.70;;;;;;5075244;28;20484;-64
2021/12/25 02:09:33;;;;;;;2.13;1.53;;;21.60;67.60;;;;;;5075536;28;20428;-64
2021/12/25 02:12:00;;;;;;;2.33;1.53;;;21.60;67.60;;;;;;5075755;28;20444;-64
2021/12/25 02:14:29;;;;;;;3.10;1.87;;;21.60;67.60;;;;;;5075495;28;20437;-64
2021/12/25 02:17:01;;;;;;;1.53;1.43;;;21.60;67.60;;;;;;5075237;28;20448;-64
2021/12/25 02:19:37;;;;;;;1.80;1.53;;;21.60;67.50;;;;;;5075272;28;20783;-64
2021/12/25 02:22:08;;;;;;;1.63;1.47;;;21.60;67.50;;;;;;5075265;28;20528;-64
2021/12/25 02:24:36;;;;;;;1.53;1.43;;;21.60;67.50;;;;;;5075114;28;20448;-64
2021/12/25 02:27:04;;;;;;;1.50;1.30;;;21.60;67.50;;;;;;5074995;28;20520;-63
2021/12/25 02:29:31;;;;;;;1.70;1.57;;;21.60;67.50;;;;;;5074947;28;20758;-65
2021/12/25 02:31:58;;;;;;;1.47;1.37;;;21.60;67.50;;;;;;5075333;28;20839;-64
2021/12/25 02:34:25;;;;;;;1.80;1.60;;;21.60;67.40;;;;;;5074812;28;20444;-64
2021/12/25 02:36:52;;;;;;;1.77;1.67;;;21.60;67.40;;;;;;5074848;28;20483;-64
2021/12/25 02:39:20;;;;;;;2.17;1.50;;;21.60;67.30;;;;;;5074550;28;20436;-64
2021/12/25 02:41:47;;;;;;;1.67;1.43;;;21.60;67.20;;;;;;5074530;28;20472;-64
2021/12/25 02:44:13;;;;;;;2.10;1.57;;;21.60;67.20;;;;;;5074667;28;20950;-64
2021/12/25 02:46:40;;;;;;;1.53;1.43;;;21.60;67.10;;;;;;5074253;28;20483;-66
2021/12/25 02:49:12;;;;;;;1.77;1.60;;;21.60;67.10;;;;;;5074375;28;20460;-64
2021/12/25 02:51:39;;;;;;;2.50;1.70;;;21.60;67.10;;;;;;5074530;28;20437;-64
2021/12/25 02:54:05;;;;;;;1.60;1.50;;;21.60;67.10;;;;;;5074604;28;20437;-64
2021/12/25 02:56:34;;;;;;;3.27;2.33;;;21.60;67.00;;;;;;5074313;28;20923;-64
2021/12/25 02:59:00;;;;;;;1.50;1.40;;;21.60;67.00;;;;;;5074285;28;20959;-63
2021/12/25 03:01:27;;;;;;;2.03;1.47;;;21.60;67.00;;;;;;5074215;28;20440;-64
2021/12/25 03:03:54;;;;;;;1.97;1.80;;;21.60;67.00;;;;;;5074213;28;20790;-64
2021/12/25 03:06:22;;;;;;;1.60;1.43;;;21.60;66.90;;;;;;5074150;28;20829;-63
2021/12/25 03:08:49;;;;;;;1.60;1.50;;;21.60;66.80;;;;;;5074050;28;20528;-64
2021/12/25 03:11:16;;;;;;;1.27;1.17;;;21.60;66.80;;;;;;5074201;28;20443;-64
2021/12/25 03:13:56;;;;;;;1.40;1.30;;;21.60;66.80;;;;;;5074162;28;20494;-63
2021/12/25 03:16:24;;;;;;;1.47;1.37;;;21.60;66.80;;;;;;5074011;28;20444;-64
2021/12/25 03:18:53;;;;;;;1.30;1.20;;;21.60;66.80;;;;;;5073835;28;20463;-64
2021/12/25 03:21:21;;;;;;;1.70;1.47;;;21.60;66.80;;;;;;5074006;28;20522;-64
2021/12/25 03:23:49;;;;;;;1.20;1.10;;;21.60;66.80;;;;;;5073785;28;20790;-64
2021/12/25 03:26:16;;;;;;;1.40;1.30;;;21.60;66.70;;;;;;5073808;28;20511;-64
2021/12/25 03:28:46;;;;;;;1.30;1.20;;;21.60;66.70;;;;;;5073717;28;20445;-64
2021/12/25 03:31:20;;;;;;;1.20;1.10;;;21.60;66.60;;;;;;5073661;28;20530;-64
2021/12/25 03:33:49;;;;;;;1.70;1.40;;;21.60;66.60;;;;;;5073833;28;20436;-64
2021/12/25 03:36:16;;;;;;;1.20;1.10;;;21.60;66.60;;;;;;5073836;28;20439;-64
2021/12/25 03:38:43;;;;;;;1.37;1.20;;;21.60;66.60;;;;;;5073701;28;20927;-64
2021/12/25 03:41:10;;;;;;;1.17;1.03;;;21.60;66.60;;;;;;5073354;28;20483;-64
2021/12/25 03:43:39;;;;;;;2.07;1.40;;;21.60;66.60;;;;;;5073621;28;20447;-64
2021/12/25 03:46:09;;;;;;;1.50;1.17;;;21.60;66.50;;;;;;5073452;28;20483;-64
2021/12/25 03:49:01;;;;;;;1.40;1.23;;;21.60;66.50;;;;;;5073200;28;20468;-64
2021/12/25 03:59:46;;;;;;;1.60;1.30;;;21.60;66.50;;;;;;5073436;28;20462;-64
2021/12/25 04:02:19;;;;;;;1.07;0.97;;;21.60;66.50;;;;;;5073346;28;20442;-64
2021/12/25 04:04:49;;;;;;;1.20;1.00;;;21.60;66.40;;;;;;5073573;28;20436;-64
2021/12/25 04:07:36;;;;;;;1.20;1.10;;;21.60;66.40;;;;;;5073293;28;20597;-64
2021/12/25 04:10:03;;;;;;;1.30;1.00;;;21.60;66.40;;;;;;5073269;28;20439;-64
2021/12/25 04:12:30;;;;;;;1.03;0.93;;;21.60;66.40;;;;;;5073261;28;20444;-64
2021/12/25 04:14:57;;;;;;;1.70;1.20;;;21.60;66.40;;;;;;5073240;28;20443;-64
2021/12/25 04:17:25;;;;;;;1.30;1.20;;;21.60;66.20;;;;;;5073119;28;20440;-64
2021/12/25 04:19:52;;;;;;;1.40;1.10;;;21.60;66.20;;;;;;5073172;28;20908;-64
2021/12/25 04:22:25;;;;;;;1.20;1.10;;;21.60;66.30;;;;;;5073172;28;20432;-64
2021/12/25 04:24:52;;;;;;;1.67;1.20;;;21.60;66.20;;;;;;5073250;28;20459;-64
2021/12/25 04:27:20;;;;;;;1.10;1.00;;;21.60;66.20;;;;;;5072852;28;20479;-64
2021/12/25 04:29:51;;;;;;;2.07;1.03;;;21.60;66.20;;;;;;5073004;28;20531;-65
2021/12/25 04:32:48;;;;;;;1.87;1.27;;;21.60;66.10;;;;;;5073169;28;20441;-64
2021/12/25 05:02:55;;;;;;;1.10;1.00;;;21.50;66.20;;;;;;5072719;28;20427;-64
2021/12/25 05:05:22;;;;;;;1.40;1.30;;;21.60;66.20;;;;;;5072813;28;20440;-64
2021/12/25 05:07:51;;;;;;;1.23;0.90;;;21.60;66.10;;;;;;5072891;28;20516;-65
2021/12/25 05:10:17;;;;;;;1.30;1.20;;;21.60;66.00;;;;;;5076232;28;20440;-64
2021/12/25 05:12:44;;;;;;;1.80;1.30;;;21.60;65.90;;;;;;5076632;28;20439;-64
2021/12/25 05:15:11;;;;;;;1.20;1.10;;;21.60;65.90;;;;;;5076381;28;20435;-64
2021/12/25 05:17:38;;;;;;;1.00;0.90;;;21.60;65.80;;;;;;5076348;28;20463;-64
2021/12/25 05:20:05;;;;;;;1.47;1.10;;;21.60;65.80;;;;;;5076307;28;20440;-64
2021/12/25 05:22:32;;;;;;;1.30;1.20;;;21.60;65.80;;;;;;5076233;28;20460;-64
2021/12/25 05:25:00;;;;;;;1.50;1.20;;;21.60;65.70;;;;;;5076107;28;20444;-64
2021/12/25 05:27:27;;;;;;;1.43;1.20;;;21.60;65.70;;;;;;5075868;28;21024;-63
2021/12/25 05:29:54;;;;;;;1.53;1.03;;;21.60;65.70;;;;;;5076182;28;20440;-64
2021/12/25 05:32:21;;;;;;;1.10;1.00;;;21.60;65.70;;;;;;5076217;28;20440;-64
2021/12/25 05:34:48;;;;;;;1.30;1.20;;;21.60;65.70;;;;;;5076000;28;20428;-65
2021/12/25 05:37:15;;;;;;;1.13;1.03;;;21.60;65.70;;;;;;5076043;28;20448;-64
2021/12/25 05:39:49;;;;;;;1.00;0.80;;;21.60;65.60;;;;;;5075696;28;20489;-64
2021/12/25 05:42:19;;;;;;;1.10;1.00;;;21.60;65.60;;;;;;5075860;28;20515;-65
2021/12/25 05:44:46;;;;;;;1.30;1.13;;;21.60;65.50;;;;;;5075959;28;20524;-65
2021/12/25 05:47:13;;;;;;;1.87;1.10;;;21.60;65.60;;;;;;5075428;28;20468;-64
2021/12/25 05:49:40;;;;;;;1.23;1.00;;;21.60;65.60;;;;;;5075773;28;20447;-64
2021/12/25 05:52:07;;;;;;;1.10;0.90;;;21.60;65.50;;;;;;5075971;28;20793;-64
2021/12/25 05:54:34;;;;;;;1.30;1.00;;;21.60;65.50;;;;;;5075554;28;20438;-64
2021/12/25 05:57:01;;;;;;;1.20;1.00;;;21.60;65.50;;;;;;5075600;28;20455;-64
2021/12/25 05:59:29;;;;;;;1.30;1.10;;;21.60;65.50;;;;;;5075470;28;20437;-64
2021/12/25 06:01:56;;;;;;;1.30;1.13;;;21.60;65.40;;;;;;5075582;28;20809;-66
2021/12/25 06:04:22;;;;;;;1.13;1.00;;;21.60;65.40;;;;;;5075549;28;20432;-64
2021/12/25 06:06:49;;;;;;;1.30;0.90;;;21.60;65.30;;;;;;5075216;28;20440;-64
2021/12/25 06:09:16;;;;;;;1.20;1.10;;;21.60;65.40;;;;;;5075154;28;20448;-64
2021/12/25 06:11:44;;;;;;;1.03;0.90;;;21.60;65.30;;;;;;5075504;28;20758;-64
2021/12/25 06:14:18;;;;;;;1.40;1.10;;;21.60;65.40;;;;;;5075410;28;20440;-64
2021/12/25 06:16:47;;;;;;;1.17;1.07;;;21.60;65.30;;;;;;5075435;28;20440;-65
2021/12/25 06:19:14;;;;;;;1.10;1.00;;;21.50;65.90;;;;;;5075000;28;20554;-65
2021/12/25 06:21:41;;;;;;;1.50;1.40;;;21.50;65.30;;;;;;5074524;28;20443;-64
2021/12/25 06:24:08;;;;;;;1.10;1.00;;;21.50;65.30;;;;;;5075183;28;20436;-64
2021/12/25 06:26:38;;;;;;;1.10;0.90;;;21.50;65.30;;;;;;5074945;28;20436;-64
2021/12/25 06:29:05;;;;;;;2.43;1.00;;;21.60;65.30;;;;;;5074708;28;20507;-63
2021/12/25 06:31:32;;;;;;;1.03;0.90;;;21.60;65.20;;;;;;5075274;28;20942;-64
2021/12/25 06:34:00;;;;;;;1.10;0.80;;;21.60;65.30;;;;;;5075148;28;20444;-64
2021/12/25 06:36:27;;;;;;;1.23;1.13;;;21.60;65.20;;;;;;5074776;28;20444;-64
2021/12/25 06:38:53;;;;;;;1.13;0.90;;;21.50;65.10;;;;;;5074968;28;20439;-64
2021/12/25 06:41:20;;;;;;;1.40;0.90;;;21.50;65.10;;;;;;5074668;28;20472;-64
2021/12/25 06:43:47;;;;;;;1.10;1.00;;;21.50;65.00;;;;;;5074621;28;20935;-64
2021/12/25 06:46:13;;;;;;;1.20;1.10;;;21.60;65.20;;;;;;5074758;28;20446;-64
2021/12/25 06:48:41;;;;;;;1.50;1.13;;;21.50;65.10;;;;;;5074450;28;20488;-64
2021/12/25 06:51:09;;;;;;;1.10;0.90;;;21.50;65.00;;;;;;5074587;28;20451;-64
2021/12/25 06:53:36;;;;;;;1.10;1.00;;;21.50;65.00;;;;;;5074546;28;20468;-65
2021/12/25 06:56:04;;;;;;;1.37;1.27;;;21.50;65.00;;;;;;5074427;28;20497;-64
2021/12/25 06:58:30;;;;;;;1.30;1.10;;;21.50;65.00;;;;;;5074444;28;20501;-63
2021/12/25 07:00:57;;;;;;;1.00;0.90;;;21.50;65.10;;;;;;5074420;28;20515;-65
2021/12/25 07:03:24;;;;;;;1.37;0.80;;;21.50;65.00;;;;;;5074227;28;20455;-64
2021/12/25 07:05:51;;;;;;;1.00;0.90;;;21.50;65.00;;;;;;5074242;28;20432;-64
2021/12/25 07:08:19;;;;;;;1.27;1.13;;;21.50;65.00;;;;;;5074022;28;20484;-64
2021/12/25 07:10:45;;;;;;;1.40;1.10;;;21.50;65.00;;;;;;5074251;28;20440;-64
2021/12/25 07:13:17;;;;;;;1.67;1.00;;;21.50;65.00;;;;;;5074237;28;20438;-64
2021/12/25 07:15:44;;;;;;;1.20;1.10;;;21.50;65.00;;;;;;5074089;28;20835;-64
2021/12/25 07:18:11;;;;;;;1.27;1.17;;;21.50;65.00;;;;;;5074085;28;20457;-64
2021/12/25 07:20:38;;;;;;;1.33;0.80;;;21.50;65.00;;;;;;5074219;28;20756;-64
2021/12/25 07:23:05;;;;;;;1.27;1.17;;;21.50;64.90;;;;;;5073786;28;20437;-64
2021/12/25 07:25:33;;;;;;;1.73;1.00;;;21.50;64.90;;;;;;5073950;28;20432;-63
2021/12/25 07:28:00;;;;;;;1.20;1.10;;;21.50;64.90;;;;;;5073724;28;20469;-64
2021/12/25 07:30:27;;;;;;;1.17;1.07;;;21.50;64.90;;;;;;5073794;28;20440;-64
2021/12/25 07:32:54;;;;;;;1.10;0.87;;;21.50;64.90;;;;;;5073652;28;20445;-64
2021/12/25 07:35:20;;;;;;;1.10;1.00;;;21.50;64.90;;;;;;5073700;28;20444;-64
2021/12/25 07:37:47;;;;;;;1.00;0.90;;;21.50;64.80;;;;;;5073705;28;20450;-64
2021/12/25 07:40:14;;;;;;;1.30;0.80;;;21.50;64.80;;;;;;5073478;28;20786;-63
2021/12/25 07:42:42;;;;;;;1.30;1.20;;;21.50;64.80;;;;;;5073780;28;20926;-64
2021/12/25 07:45:11;;;;;;;3.63;1.17;;;21.50;64.80;;;;;;5073490;28;20437;-64
2021/12/25 07:47:45;;;;;;;1.03;0.90;;;21.50;64.80;;;;;;5073427;28;20848;-64
2021/12/25 07:50:13;;;;;;;1.13;1.03;;;21.50;64.80;;;;;;5073508;28;20440;-64
2021/12/25 07:52:41;;;;;;;1.50;1.20;;;21.50;64.80;;;;;;5073567;28;20456;-64
2021/12/25 07:55:08;;;;;;;1.10;0.90;;;21.50;64.80;;;;;;5073434;28;20437;-64
2021/12/25 07:57:35;;;;;;;1.20;0.97;;;21.50;64.70;;;;;;5073312;28;20429;-64
2021/12/25 08:00:05;;;;;;;1.20;1.00;;;21.50;64.70;;;;;;5073413;28;20490;-64
2021/12/25 08:02:32;;;;;;;1.10;0.93;;;21.50;64.70;;;;;;5073268;28;20839;-64
2021/12/25 08:04:58;;;;;;;1.57;1.00;;;21.50;64.70;;;;;;5073312;28;20440;-64
2021/12/25 08:07:25;;;;;;;1.00;0.80;;;21.50;64.70;;;;;;5073410;28;20581;-64
2021/12/25 08:09:57;;;;;;;1.30;1.03;;;21.50;64.60;;;;;;5073341;28;20485;-64
2021/12/25 08:12:23;;;;;;;1.30;1.13;;;21.50;64.40;;;;;;5073233;28;20469;-65
2021/12/25 08:14:50;;;;;;;1.20;1.10;;;21.50;64.50;;;;;;5073263;28;20814;-64
2021/12/25 08:17:18;;;;;;;2.23;1.10;;;21.50;64.50;;;;;;5073115;28;20443;-64
2021/12/25 08:19:45;;;;;;;1.43;1.10;;;21.60;64.40;;;;;;5073275;28;20444;-64
2021/12/25 08:22:12;;;;;;;1.17;0.90;;;21.60;64.50;;;;;;5072997;28;20801;-63
2021/12/25 08:24:38;;;;;;;1.40;1.10;;;21.60;64.50;;;;;;5073175;28;20441;-64
2021/12/25 08:27:06;;;;;;;1.30;1.20;;;21.60;64.50;;;;;;5073072;28;20445;-66
2021/12/25 08:29:36;;;;;;;1.43;1.30;;;21.50;64.60;;;;;;5072980;28;20484;-64
2021/12/25 08:32:03;;;;;;;1.27;1.00;;;21.50;65.00;;;;;;5073011;28;20471;-63
2021/12/25 08:34:32;;;;;;;1.23;1.10;;;21.60;65.00;;;;;;5073354;28;20440;-63
2021/12/25 08:36:58;;;;;;;1.20;1.10;;;21.70;64.20;;;;;;5073068;28;20447;-63
2021/12/25 08:39:25;;;;;;;1.50;1.20;;;21.80;64.00;;;;;;5073094;28;20441;-63
2021/12/25 08:42:00;;;;;;;2.00;0.97;;;21.90;64.00;;;;;;5072954;28;20471;-63
2021/12/25 08:44:33;;;;;;;1.23;1.00;;;21.90;63.80;;;;;;5075282;28;20472;-63
2021/12/25 08:47:01;;;;;;;1.50;1.00;;;22.00;63.90;;;;;;5077022;28;20440;-64
2021/12/25 08:49:30;;;;;;;1.10;0.97;;;22.10;63.90;;;;;;5076749;28;20483;-63
2021/12/25 08:52:00;;;;;;;1.30;1.20;;;22.10;63.80;;;;;;5076798;28;20448;-63
2021/12/25 08:54:27;;;;;;;1.20;1.00;;;22.10;63.70;;;;;;5076847;28;20807;-63
2021/12/25 08:56:54;;;;;;;1.10;0.90;;;22.20;63.80;;;;;;5076631;28;20930;-63
2021/12/25 08:59:21;;;;;;;1.13;1.03;;;22.20;63.70;;;;;;5076629;28;20440;-63
2021/12/25 09:01:48;;;;;;;1.43;0.90;;;22.20;63.60;;;;;;5076563;28;20443;-63
2021/12/25 09:04:15;;;;;;;1.53;1.00;;;22.30;63.60;;;;;;5076860;28;20432;-63
2021/12/25 09:06:42;;;;;;;1.20;0.90;;;22.30;63.60;;;;;;5076553;28;20435;-63
2021/12/25 09:09:11;;;;;;;1.30;1.10;;;22.30;63.60;;;;;;5076291;28;20490;-63
2021/12/25 09:11:38;;;;;;;1.63;1.00;;;22.30;63.40;;;;;;5076510;28;20893;-64
2021/12/25 09:14:06;;;;;;;1.30;0.90;;;22.30;63.40;;;;;;5076706;28;20916;-63
2021/12/25 09:16:33;;;;;;;1.57;0.80;;;22.30;63.30;;;;;;5076281;28;20444;-63
2021/12/25 09:19:01;;;;;;;1.87;1.00;;;22.30;63.20;;;;;;5076399;28;20895;-63
2021/12/25 09:21:28;;;;;;;1.20;0.93;;;22.40;63.30;;;;;;5076193;28;20763;-63
2021/12/25 09:23:54;;;;;;;1.00;0.80;;;22.40;63.30;;;;;;5075959;28;20812;-64
2021/12/25 09:26:22;;;;;;;1.10;0.73;;;22.40;63.30;;;;;;5076086;28;20440;-63
2021/12/25 09:28:49;;;;;;;1.30;1.20;;;22.40;63.30;;;;;;5076016;28;20476;-63
2021/12/25 09:31:16;;;;;;;1.40;0.97;;;22.40;63.30;;;;;;5076429;28;20441;-63
2021/12/25 09:33:43;;;;;;;1.00;0.87;;;22.40;63.20;;;;;;5068138;28;20446;-63
2021/12/25 09:36:10;;;;;;;1.20;1.07;;;22.40;63.10;;;;;;5056081;28;20446;-63
2021/12/25 09:38:37;;;;;;;1.40;0.80;;;22.40;63.10;;;;;;5055793;28;20442;-63
2021/12/25 09:41:05;;;;;;;1.00;0.90;;;22.40;63.10;;;;;;5064162;28;20453;-63
2021/12/25 09:43:35;;;;;;;1.20;1.07;;;22.40;63.10;;;;;;5075159;28;20452;-63
2021/12/25 09:46:02;;;;;;;1.50;1.20;;;22.50;63.00;;;;;;5075372;28;20923;-63
2021/12/25 09:48:29;;;;;;;1.10;1.00;;;22.40;62.60;;;;;;5075832;28;20495;-63
2021/12/25 09:50:55;;;;;;;1.97;1.37;;;22.30;62.70;;;;;;5075709;28;20448;-63
2021/12/25 09:53:22;;;;;;;1.47;1.20;;;22.20;62.70;;;;;;5075558;28;20919;-64
2021/12/25 09:55:49;;;;;;;2.27;1.10;;;22.20;62.80;;;;;;5074347;28;20437;-63
2021/12/25 09:58:16;;;;;;;1.57;1.27;;;22.20;62.80;;;;;;5075612;28;20439;-64
2021/12/25 10:00:46;;;;;;;2.70;1.90;;;22.20;62.90;;;;;;5075519;28;20924;-63
2021/12/25 10:03:13;;;;;;;5.10;1.10;;;21.80;59.30;;;;;;5075442;28;20441;-63
2021/12/25 10:05:42;;;;;;;1.90;1.40;;;21.70;61.40;;;;;;5075365;28;20451;-63
2021/12/25 10:08:11;;;;;;;2.80;1.97;;;21.70;62.30;;;;;;5074297;28;20449;-64
2021/12/25 10:10:44;;;;;;;1.50;1.40;;;21.70;62.60;;;;;;5075214;28;20474;-64
2021/12/25 10:13:37;;;;;;;2.23;1.60;;;21.70;62.80;;;;;;5075644;28;20812;-64
2021/12/25 10:19:15;;;;;;;1.47;1.37;;;21.70;63.10;;;;;;5090845;27;20542;-65
2021/12/25 10:21:42;;;;;;;2.20;1.50;;;21.60;63.80;;;;;;5090755;28;21139;-65
2021/12/25 10:24:13;;;;;;;2.47;1.90;;;21.60;63.80;;;;;;5090556;28;20436;-65
2021/12/25 10:26:42;;;;;;;2.00;1.70;;;21.60;63.70;;;;;;5090707;28;20470;-65
2021/12/25 10:29:20;;;;;;;2.23;1.50;;;21.60;63.70;;;;;;5090521;28;20914;-65
2021/12/25 10:31:47;;;;;;;2.10;1.73;;;21.60;63.60;;;;;;5089472;28;20799;-63
2021/12/25 10:34:17;;;;;;;3.87;2.80;;;21.60;63.70;;;;;;5090258;28;20451;-63
2021/12/25 10:36:44;;;;;;;3.13;2.20;;;21.70;64.00;;;;;;5090528;28;20436;-64
2021/12/25 10:39:12;;;;;;;2.63;1.93;;;21.80;63.00;;;;;;5090290;28;20435;-63
2021/12/25 10:41:41;;;;;;;3.83;2.20;;;21.90;63.20;;;;;;5071669;28;20436;-65
2021/12/25 10:44:14;;;;;;;5.73;2.90;;;21.80;58.70;;;;;;5069851;28;21035;-65
2021/12/25 10:46:52;;;;;;;8.13;3.13;;;21.80;60.60;;;;;;5069868;28;20437;-65
2021/12/25 10:49:22;;;;;;;4.00;2.53;;;21.80;61.30;;;;;;5070072;28;20782;-66
2021/12/25 10:51:48;;;;;;;4.20;3.50;;;21.90;61.90;;;;;;5072553;28;20444;-65
2021/12/25 10:54:18;;;;;;;7.20;4.30;;;21.90;62.10;;;;;;5069804;28;20436;-66
2021/12/25 10:56:47;;;;;;;7.17;3.40;;;22.00;62.40;;;;;;5068924;28;20488;-64
2021/12/25 10:59:17;;;;;;;5.87;3.93;;;22.00;62.50;;;;;;5069834;28;20444;-62
2021/12/25 11:01:45;;;;;;;10.53;7.07;;;22.10;62.50;;;;;;5069150;28;20452;-64
2021/12/25 11:04:32;;;;;;;14.40;7.60;;;22.10;62.40;;;;;;5068092;28;20451;-64
2021/12/25 11:06:59;;;;;;;11.90;8.10;;;22.20;62.40;;;;;;5069525;28;20437;-64
2021/12/25 11:09:26;;;;;;;7.67;6.37;;;22.10;62.40;;;;;;5068618;28;20523;-64
2021/12/25 11:12:19;;;;;;;10.60;5.90;;;22.00;62.40;;;;;;5069604;28;20808;-64
2021/12/25 11:14:46;;;;;;;6.00;4.80;;;22.00;62.40;;;;;;5075777;28;20919;-65
2021/12/25 11:17:26;;;;;;;7.87;5.73;;;21.90;62.30;;;;;;5088655;28;20838;-65
2021/12/25 11:20:01;;;;;;;7.87;5.70;;;21.90;62.40;;;;;;5089502;28;20439;-64
2021/12/25 11:22:44;;;;;;;6.60;5.10;;;21.90;62.60;;;;;;5089476;28;20439;-66
2021/12/25 11:25:11;;;;;;;8.10;5.10;;;21.90;62.80;;;;;;5089131;28;20448;-65
2021/12/25 11:27:38;;;;;;;5.80;4.50;;;22.00;63.10;;;;;;5089402;28;20767;-62
2021/12/25 11:30:07;;;;;;;7.37;5.73;;;22.10;63.10;;;;;;5077246;28;20432;-62
2021/12/25 11:32:34;;;;;;;7.73;5.83;;;22.10;62.90;;;;;;5076006;28;20441;-63
2021/12/25 11:35:02;;;;;;;6.17;4.47;;;22.20;63.00;;;;;;5075861;28;20444;-64
2021/12/25 11:37:29;;;;;;;5.13;4.60;;;22.20;62.90;;;;;;5075725;28;20484;-65
2021/12/25 11:39:56;;;;;;;4.63;4.20;;;22.30;62.90;;;;;;5075766;28;20787;-64
2021/12/25 11:42:25;;;;;;;5.37;4.83;;;22.30;62.80;;;;;;5075810;28;20444;-65
2021/12/25 11:44:53;;;;;;;5.50;4.27;;;22.30;62.80;;;;;;5075893;28;20440;-63
2021/12/25 11:47:33;;;;;;;5.73;4.10;;;22.30;62.80;;;;;;5075555;28;20464;-62
2021/12/25 11:50:04;;;;;;;4.93;3.23;;;22.40;62.80;;;;;;5075577;28;20919;-63
2021/12/25 11:52:36;;;;;;;4.27;3.80;;;22.40;62.70;;;;;;5075550;28;20936;-63
2021/12/25 11:58:20;;;;;;;4.13;3.50;;;22.40;62.50;;;;;;5075380;28;20574;-62
2021/12/25 12:00:49;;;;;;;8.37;3.97;;;22.40;62.60;;;;;;5075280;28;20444;-62
2021/12/25 12:03:39;;;;;;;4.20;3.80;;;22.40;62.70;;;;;;5075279;28;20950;-63
2021/12/25 12:06:07;;;;;;;7.67;4.00;;;22.50;62.60;;;;;;5075228;28;20796;-63
2021/12/25 12:09:01;;;;;;;4.07;3.43;;;22.40;62.40;;;;;;5075219;28;20437;-63
2021/12/25 12:11:29;;;;;;;3.50;3.20;;;22.50;62.50;;;;;;5075151;28;20958;-65
2021/12/25 12:14:15;;;;;;;5.90;3.57;;;22.40;62.50;;;;;;5075246;28;20435;-62
2021/12/25 12:16:44;;;;;;;5.13;3.67;;;22.50;62.40;;;;;;5074839;28;20963;-62
2021/12/25 12:19:45;;;;;;;3.70;3.40;;;22.50;62.50;;;;;;5075106;28;20958;-63
2021/12/25 12:23:19;;;;;;;3.13;2.77;;;22.50;62.40;;;;;;5075013;28;20443;-62
2021/12/25 12:26:03;;;;;;;4.97;3.70;;;22.50;62.50;;;;;;5074899;28;20433;-63
2021/12/25 12:28:45;;;;;;;7.53;3.50;;;22.50;62.40;;;;;;5074872;28;20490;-63
2021/12/25 12:31:37;;;;;;;5.30;3.20;;;22.50;62.40;;;;;;5075070;28;20863;-63
2021/12/25 12:34:35;;;;;;;3.03;2.63;;;22.50;62.30;;;;;;5074938;28;20444;-63
2021/12/25 12:37:30;;;;;;;3.20;2.90;;;22.50;62.20;;;;;;5074577;28;20436;-62
2021/12/25 12:40:25;;;;;;;2.73;2.53;;;22.50;62.20;;;;;;5074339;28;20444;-62
2021/12/25 12:42:58;;;;;;;5.27;3.93;;;22.50;62.20;;;;;;5074576;28;20433;-63
2021/12/25 12:45:27;;;;;;;3.43;3.13;;;22.50;62.00;;;;;;5074713;28;20440;-63
2021/12/25 12:48:15;;;;;;;2.97;2.67;;;22.50;62.20;;;;;;5074404;28;20456;-63
2021/12/25 12:50:44;;;;;;;2.50;2.30;;;22.60;62.20;;;;;;5074432;28;20449;-65
2021/12/25 12:53:11;;;;;;;2.77;2.50;;;22.50;62.10;;;;;;5074386;28;20463;-63
2021/12/25 12:55:39;;;;;;;2.50;2.30;;;22.60;62.00;;;;;;5074452;28;20783;-62
2021/12/25 12:58:10;;;;;;;3.73;2.40;;;22.60;62.00;;;;;;5074182;28;20468;-63
2021/12/25 13:00:39;;;;;;;2.47;2.27;;;22.50;61.90;;;;;;5074197;28;20444;-62
2021/12/25 13:03:06;;;;;;;3.00;2.70;;;22.60;61.90;;;;;;5074189;28;20449;-62
2021/12/25 13:05:36;;;;;;;2.60;2.07;;;22.60;62.00;;;;;;5074147;28;20441;-63
2021/12/25 13:08:10;;;;;;;2.83;2.37;;;22.60;61.90;;;;;;5073900;28;20537;-62
2021/12/25 13:10:38;;;;;;;2.80;2.60;;;22.60;61.70;;;;;;5074091;28;20453;-63
2021/12/25 13:13:11;;;;;;;2.80;2.53;;;22.60;61.70;;;;;;5074059;28;20449;-62
2021/12/25 13:15:40;;;;;;;3.23;1.77;;;22.60;61.70;;;;;;5073923;28;20437;-62
2021/12/25 13:18:08;;;;;;;2.73;1.80;;;22.60;61.70;;;;;;5073437;28;20494;-63
2021/12/25 13:20:42;;;;;;;2.80;2.50;;;22.60;61.70;;;;;;5073909;28;20444;-63
2021/12/25 13:23:12;;;;;;;2.00;1.90;;;22.60;61.60;;;;;;5073745;28;20928;-62
2021/12/25 13:25:50;;;;;;;2.30;2.10;;;22.60;61.50;;;;;;5073907;28;20440;-62
2021/12/25 13:28:19;;;;;;;2.50;2.30;;;22.60;61.50;;;;;;5073744;28;20523;-62
2021/12/25 13:30:49;;;;;;;2.30;2.00;;;22.60;61.50;;;;;;5073859;28;20788;-62
2021/12/25 13:33:20;;;;;;;3.30;1.83;;;22.60;61.50;;;;;;5073593;28;20445;-63
2021/12/25 13:35:48;;;;;;;2.30;1.70;;;22.60;61.40;;;;;;5073556;28;20797;-62
2021/12/25 13:38:16;;;;;;;1.90;1.70;;;22.60;61.40;;;;;;5062554;28;20485;-62
2021/12/25 13:40:48;;;;;;;1.83;1.70;;;22.60;61.40;;;;;;5053612;28;20437;-62
2021/12/25 13:43:15;;;;;;;2.00;1.77;;;22.60;61.40;;;;;;5053495;28;20445;-63
2021/12/25 13:45:43;;;;;;;2.70;2.10;;;22.60;61.40;;;;;;5053635;28;20793;-63
2021/12/25 13:48:10;;;;;;;2.50;1.80;;;22.60;61.30;;;;;;5053275;28;20466;-62
2021/12/25 13:50:37;;;;;;;2.10;1.90;;;22.60;61.30;;;;;;5053510;28;20801;-63
2021/12/25 13:53:10;;;;;;;2.30;2.07;;;22.60;61.20;;;;;;5053209;28;20444;-62
2021/12/25 13:55:37;;;;;;;1.70;1.60;;;22.60;61.20;;;;;;5053479;28;20460;-63
2021/12/25 13:58:07;;;;;;;2.10;1.90;;;22.60;61.30;;;;;;5053423;28;20473;-63
2021/12/25 14:00:37;;;;;;;2.30;2.03;;;22.70;61.40;;;;;;5053198;28;20437;-64
2021/12/25 14:03:08;;;;;;;1.50;1.30;;;22.60;61.20;;;;;;5053185;28;20437;-65
2021/12/25 14:05:38;;;;;;;2.13;1.50;;;22.60;61.10;;;;;;5053340;28;20442;-64
2021/12/25 14:08:05;;;;;;;1.90;1.70;;;22.60;61.10;;;;;;5053123;28;20446;-64